sensor_id;sensor_type;location;lat;lon;timestamp;pressure;altitude;pressure_sealevel;temperature;humidity
23170;BME280;11753;43.144;24.714;2023-02-15T00:00:08;100992.31;;;2.14;82.51
23170;BME280;11753;43.144;24.714;2023-02-15T00:01:14;100990.34;;;2.19;82.40
23170;BME280;11753;43.144;24.714;2023-02-15T00:02:15;100985.97;;;2.20;82.28
23170;BME280;11753;43.144;24.714;2023-02-15T00:03:16;100994.00;;;2.15;82.56
23170;BME280;11753;43.144;24.714;2023-02-15T00:04:22;100994.19;;;2.11;82.29
23170;BME280;11753;43.144;24.714;2023-02-15T00:05:23;100991.66;;;2.09;82.51
23170;BME280;11753;43.144;24.714;2023-02-15T00:06:24;100996.34;;;2.01;82.70
23170;BME280;11753;43.144;24.714;2023-02-15T00:07:25;100996.28;;;2.03;82.96
23170;BME280;11753;43.144;24.714;2023-02-15T00:08:26;100998.78;;;2.04;82.96
23170;BME280;11753;43.144;24.714;2023-02-15T00:09:26;100993.53;;;2.06;82.86
23170;BME280;11753;43.144;24.714;2023-02-15T00:10:27;100989.31;;;2.03;82.87
23170;BME280;11753;43.144;24.714;2023-02-15T00:11:28;100986.88;;;2.00;82.99
23170;BME280;11753;43.144;24.714;2023-02-15T00:12:41;100989.75;;;1.92;83.40
23170;BME280;11753;43.144;24.714;2023-02-15T00:13:42;100988.81;;;1.95;83.26
23170;BME280;11753;43.144;24.714;2023-02-15T00:14:43;100991.50;;;1.92;83.34
23170;BME280;11753;43.144;24.714;2023-02-15T00:15:43;100986.31;;;1.92;83.34
23170;BME280;11753;43.144;24.714;2023-02-15T00:16:44;100987.69;;;1.80;83.85
23170;BME280;11753;43.144;24.714;2023-02-15T00:17:45;100986.47;;;1.89;83.54
23170;BME280;11753;43.144;24.714;2023-02-15T00:18:46;100991.81;;;1.86;83.62
23170;BME280;11753;43.144;24.714;2023-02-15T00:19:46;100992.91;;;1.80;83.62
23170;BME280;11753;43.144;24.714;2023-02-15T00:20:47;101000.47;;;1.85;83.65
23170;BME280;11753;43.144;24.714;2023-02-15T00:21:48;100997.09;;;1.83;83.77
23170;BME280;11753;43.144;24.714;2023-02-15T00:22:49;100997.09;;;1.83;83.78
23170;BME280;11753;43.144;24.714;2023-02-15T00:23:50;100997.88;;;1.85;83.63
23170;BME280;11753;43.144;24.714;2023-02-15T00:24:50;100995.28;;;1.85;83.51
23170;BME280;11753;43.144;24.714;2023-02-15T00:25:51;100993.75;;;1.81;83.45
23170;BME280;11753;43.144;24.714;2023-02-15T00:26:53;100990.63;;;1.73;83.76
23170;BME280;11753;43.144;24.714;2023-02-15T00:27:54;100987.69;;;1.80;83.49
23170;BME280;11753;43.144;24.714;2023-02-15T00:28:56;100991.13;;;1.81;83.64
23170;BME280;11753;43.144;24.714;2023-02-15T00:29:59;100991.06;;;1.82;83.49
23170;BME280;11753;43.144;24.714;2023-02-15T00:31:10;100993.59;;;1.84;83.51
23170;BME280;11753;43.144;24.714;2023-02-15T00:32:11;100996.25;;;1.82;83.70
23170;BME280;11753;43.144;24.714;2023-02-15T00:33:11;100990.09;;;1.85;83.82
23170;BME280;11753;43.144;24.714;2023-02-15T00:34:16;100980.81;;;1.79;83.68
23170;BME280;11753;43.144;24.714;2023-02-15T00:35:17;100983.19;;;1.63;84.15
23170;BME280;11753;43.144;24.714;2023-02-15T00:36:18;100990.97;;;1.63;84.39
23170;BME280;11753;43.144;24.714;2023-02-15T00:37:19;100993.41;;;1.68;83.90
23170;BME280;11753;43.144;24.714;2023-02-15T00:38:20;100991.19;;;1.59;84.27
23170;BME280;11753;43.144;24.714;2023-02-15T00:39:21;100992.94;;;1.58;84.64
23170;BME280;11753;43.144;24.714;2023-02-15T00:40:25;100994.63;;;1.59;84.59
23170;BME280;11753;43.144;24.714;2023-02-15T00:41:25;100986.31;;;1.51;85.18
23170;BME280;11753;43.144;24.714;2023-02-15T00:42:26;100984.63;;;1.50;85.10
23170;BME280;11753;43.144;24.714;2023-02-15T00:43:29;100990.59;;;1.52;85.11
23170;BME280;11753;43.144;24.714;2023-02-15T00:44:30;100992.13;;;1.56;85.21
23170;BME280;11753;43.144;24.714;2023-02-15T00:45:31;100986.06;;;1.57;85.02
23170;BME280;11753;43.144;24.714;2023-02-15T00:46:32;100991.13;;;1.60;84.81
23170;BME280;11753;43.144;24.714;2023-02-15T00:47:33;100992.13;;;1.56;84.92
23170;BME280;11753;43.144;24.714;2023-02-15T00:48:35;100989.69;;;1.53;85.00
23170;BME280;11753;43.144;24.714;2023-02-15T00:49:35;100991.50;;;1.51;85.21
23170;BME280;11753;43.144;24.714;2023-02-15T00:50:36;100993.25;;;1.51;85.41
23170;BME280;11753;43.144;24.714;2023-02-15T00:51:38;100988.84;;;1.53;85.27
23170;BME280;11753;43.144;24.714;2023-02-15T00:52:40;100989.81;;;1.50;85.24
23170;BME280;11753;43.144;24.714;2023-02-15T00:53:41;100991.50;;;1.51;85.34
23170;BME280;11753;43.144;24.714;2023-02-15T00:54:41;100993.44;;;1.46;85.29
23170;BME280;11753;43.144;24.714;2023-02-15T00:55:42;100980.16;;;1.32;85.56
23170;BME280;11753;43.144;24.714;2023-02-15T00:56:43;100978.34;;;1.34;85.31
23170;BME280;11753;43.144;24.714;2023-02-15T00:57:45;100990.31;;;1.38;85.39
23170;BME280;11753;43.144;24.714;2023-02-15T00:58:46;100983.44;;;1.37;85.38
23170;BME280;11753;43.144;24.714;2023-02-15T00:59:47;100982.59;;;1.36;85.40
23170;BME280;11753;43.144;24.714;2023-02-15T01:00:48;100984.50;;;1.31;85.64
23170;BME280;11753;43.144;24.714;2023-02-15T01:01:49;100990.53;;;1.32;85.83
23170;BME280;11753;43.144;24.714;2023-02-15T01:02:50;100988.97;;;1.28;85.66
23170;BME280;11753;43.144;24.714;2023-02-15T01:03:52;100985.59;;;1.26;86.20
23170;BME280;11753;43.144;24.714;2023-02-15T01:04:53;100990.53;;;1.32;86.22
23170;BME280;11753;43.144;24.714;2023-02-15T01:05:54;100996.50;;;1.34;86.06
23170;BME280;11753;43.144;24.714;2023-02-15T01:06:57;100985.34;;;1.32;85.97
23170;BME280;11753;43.144;24.714;2023-02-15T01:07:59;100986.06;;;1.35;85.96
23170;BME280;11753;43.144;24.714;2023-02-15T01:09:00;100985.13;;;1.38;85.78
23170;BME280;11753;43.144;24.714;2023-02-15T01:10:00;100994.75;;;1.34;85.86
23170;BME280;11753;43.144;24.714;2023-02-15T01:11:10;100997.19;;;1.39;85.60
23170;BME280;11753;43.144;24.714;2023-02-15T01:12:11;100996.41;;;1.37;85.69
23170;BME280;11753;43.144;24.714;2023-02-15T01:13:13;100998.09;;;1.38;85.55
23170;BME280;11753;43.144;24.714;2023-02-15T01:14:15;100997.19;;;1.39;85.55
23170;BME280;11753;43.144;24.714;2023-02-15T01:15:16;100988.09;;;1.29;85.96
23170;BME280;11753;43.144;24.714;2023-02-15T01:16:17;100991.16;;;1.17;86.50
23170;BME280;11753;43.144;24.714;2023-02-15T01:17:18;100980.53;;;1.23;86.36
23170;BME280;11753;43.144;24.714;2023-02-15T01:18:19;100995.28;;;1.21;86.49
23170;BME280;11753;43.144;24.714;2023-02-15T01:19:20;100995.28;;;1.21;86.41
23170;BME280;11753;43.144;24.714;2023-02-15T01:20:24;100978.84;;;1.22;86.53
23170;BME280;11753;43.144;24.714;2023-02-15T01:21:26;100980.78;;;1.17;86.62
23170;BME280;11753;43.144;24.714;2023-02-15T01:22:27;100985.97;;;1.17;86.70
23170;BME280;11753;43.144;24.714;2023-02-15T01:23:28;100985.13;;;1.16;86.70
23170;BME280;11753;43.144;24.714;2023-02-15T01:24:29;100981.69;;;1.16;86.72
23170;BME280;11753;43.144;24.714;2023-02-15T01:25:30;100984.16;;;1.19;86.59
23170;BME280;11753;43.144;24.714;2023-02-15T01:26:31;100979.72;;;1.21;86.60
23170;BME280;11753;43.144;24.714;2023-02-15T01:27:31;100982.31;;;1.21;86.44
23170;BME280;11753;43.144;24.714;2023-02-15T01:28:32;100979.72;;;1.21;86.46
23170;BME280;11753;43.144;24.714;2023-02-15T01:29:33;100989.22;;;1.22;86.33
23170;BME280;11753;43.144;24.714;2023-02-15T01:30:34;100974.44;;;1.24;86.29
23170;BME280;11753;43.144;24.714;2023-02-15T01:31:35;100987.50;;;1.21;86.46
23170;BME280;11753;43.144;24.714;2023-02-15T01:32:36;100980.56;;;1.21;86.42
23170;BME280;11753;43.144;24.714;2023-02-15T01:33:37;100974.84;;;1.35;85.73
23170;BME280;11753;43.144;24.714;2023-02-15T01:34:38;100970.41;;;1.17;85.51
23170;BME280;11753;43.144;24.714;2023-02-15T01:35:39;100973.38;;;1.07;85.87
23170;BME280;11753;43.144;24.714;2023-02-15T01:36:39;100971.94;;;1.21;85.53
23170;BME280;11753;43.144;24.714;2023-02-15T01:37:40;100969.06;;;1.06;85.90
23170;BME280;11753;43.144;24.714;2023-02-15T01:38:41;100972.56;;;1.05;86.35
23170;BME280;11753;43.144;24.714;2023-02-15T01:39:42;100974.50;;;1.00;86.66
23170;BME280;11753;43.144;24.714;2023-02-15T01:40:43;100970.19;;;0.99;86.98
23170;BME280;11753;43.144;24.714;2023-02-15T01:41:44;100969.19;;;1.03;87.23
23170;BME280;11753;43.144;24.714;2023-02-15T01:42:45;100966.75;;;0.99;87.23
23170;BME280;11753;43.144;24.714;2023-02-15T01:43:49;100964.00;;;1.03;87.45
23170;BME280;11753;43.144;24.714;2023-02-15T01:45:52;100966.47;;;1.06;87.66
23170;BME280;11753;43.144;24.714;2023-02-15T01:46:53;100958.81;;;1.03;87.58
23170;BME280;11753;43.144;24.714;2023-02-15T01:49:10;100958.06;;;1.00;87.58
23170;BME280;11753;43.144;24.714;2023-02-15T01:50:18;100953.09;;;0.95;87.57
23170;BME280;11753;43.144;24.714;2023-02-15T01:51:24;100952.13;;;0.98;87.73
23170;BME280;11753;43.144;24.714;2023-02-15T01:52:27;100953.75;;;1.00;87.78
23170;BME280;11753;43.144;24.714;2023-02-15T01:53:37;100961.78;;;0.94;87.86
23170;BME280;11753;43.144;24.714;2023-02-15T01:54:40;100958.13;;;0.98;87.79
23170;BME280;11753;43.144;24.714;2023-02-15T01:56:26;100958.81;;;1.03;87.50
23170;BME280;11753;43.144;24.714;2023-02-15T01:57:25;100964.97;;;1.01;87.63
23170;BME280;11753;43.144;24.714;2023-02-15T01:58:29;100961.56;;;0.99;87.88
23170;BME280;11753;43.144;24.714;2023-02-15T01:59:32;100957.22;;;0.99;87.97
23170;BME280;11753;43.144;24.714;2023-02-15T02:00:34;100954.72;;;0.98;88.06
23170;BME280;11753;43.144;24.714;2023-02-15T02:01:35;100961.66;;;0.97;88.11
23170;BME280;11753;43.144;24.714;2023-02-15T02:02:35;100951.16;;;1.00;87.99
23170;BME280;11753;43.144;24.714;2023-02-15T02:03:40;100953.75;;;1.00;88.12
23170;BME280;11753;43.144;24.714;2023-02-15T02:04:48;100956.59;;;0.94;88.46
23170;BME280;11753;43.144;24.714;2023-02-15T02:05:50;100959.88;;;0.98;88.08
23170;BME280;11753;43.144;24.714;2023-02-15T02:06:51;100957.59;;;0.90;88.29
23170;BME280;11753;43.144;24.714;2023-02-15T02:07:55;100957.44;;;0.95;88.26
23170;BME280;11753;43.144;24.714;2023-02-15T02:08:57;100954.34;;;0.85;88.67
23170;BME280;11753;43.144;24.714;2023-02-15T02:09:58;100964.69;;;0.85;88.57
23170;BME280;11753;43.144;24.714;2023-02-15T02:10:59;100951.63;;;0.88;88.66
23170;BME280;11753;43.144;24.714;2023-02-15T02:12:00;100958.50;;;0.89;88.68
23170;BME280;11753;43.144;24.714;2023-02-15T02:13:06;100955.75;;;0.94;88.55
23170;BME280;11753;43.144;24.714;2023-02-15T02:14:07;100959.41;;;0.88;88.41
23170;BME280;11753;43.144;24.714;2023-02-15T02:15:09;100949.72;;;0.93;88.21
23170;BME280;11753;43.144;24.714;2023-02-15T02:16:57;100951.44;;;0.93;88.32
23170;BME280;11753;43.144;24.714;2023-02-15T02:18:07;100950.97;;;0.83;88.38
23170;BME280;11753;43.144;24.714;2023-02-15T02:31:47;100958.63;;;0.86;87.91
23170;BME280;11753;43.144;24.714;2023-02-15T02:34:27;100963.94;;;0.83;88.12
23170;BME280;11753;43.144;24.714;2023-02-15T02:35:43;100964.91;;;0.80;87.93
23170;BME280;11753;43.144;24.714;2023-02-15T02:37:06;100958.75;;;0.83;87.89
23170;BME280;11753;43.144;24.714;2023-02-15T02:40:16;100960.41;;;0.84;88.21
23170;BME280;11753;43.144;24.714;2023-02-15T02:41:36;100970.72;;;0.86;88.15
23170;BME280;11753;43.144;24.714;2023-02-15T02:42:46;100961.34;;;0.83;88.15
23170;BME280;11753;43.144;24.714;2023-02-15T02:45:41;100963.00;;;0.84;87.57
23170;BME280;11753;43.144;24.714;2023-02-15T02:47:52;100955.59;;;0.75;88.14
23170;BME280;11753;43.144;24.714;2023-02-15T02:48:54;100950.41;;;0.75;88.04
23170;BME280;11753;43.144;24.714;2023-02-15T02:50:02;100956.44;;;0.75;88.34
23170;BME280;11753;43.144;24.714;2023-02-15T02:51:04;100944.56;;;0.70;88.53
23170;BME280;11753;43.144;24.714;2023-02-15T02:53:27;100958.41;;;0.69;88.31
23170;BME280;11753;43.144;24.714;2023-02-15T02:54:30;100956.50;;;0.74;88.14
23170;BME280;11753;43.144;24.714;2023-02-15T02:56:41;100956.16;;;0.83;87.84
23170;BME280;11753;43.144;24.714;2023-02-15T02:57:58;100952.00;;;0.79;87.83
23170;BME280;11753;43.144;24.714;2023-02-15T02:59:30;100949.56;;;0.74;88.01
23170;BME280;11753;43.144;24.714;2023-02-15T03:00:36;100959.16;;;0.72;88.14
23170;BME280;11753;43.144;24.714;2023-02-15T03:02:02;100959.09;;;0.74;88.03
23170;BME280;11753;43.144;24.714;2023-02-15T03:03:14;100963.72;;;0.66;87.58
23170;BME280;11753;43.144;24.714;2023-02-15T03:04:26;100956.28;;;0.33;88.39
23170;BME280;11753;43.144;24.714;2023-02-15T03:05:30;100962.03;;;0.41;88.25
23170;BME280;11753;43.144;24.714;2023-02-15T03:07:35;100961.03;;;0.45;88.76
23170;BME280;11753;43.144;24.714;2023-02-15T03:08:41;100954.09;;;0.46;89.16
23170;BME280;11753;43.144;24.714;2023-02-15T03:09:46;100956.28;;;0.57;89.35
23170;BME280;11753;43.144;24.714;2023-02-15T03:10:52;100957.31;;;0.52;89.77
23170;BME280;11753;43.144;24.714;2023-02-15T03:11:53;100960.47;;;0.61;89.53
23170;BME280;11753;43.144;24.714;2023-02-15T03:12:54;100966.09;;;0.48;89.92
23170;BME280;11753;43.144;24.714;2023-02-15T03:13:56;100954.25;;;0.41;90.57
23170;BME280;11753;43.144;24.714;2023-02-15T03:15:06;100959.50;;;0.40;90.92
23170;BME280;11753;43.144;24.714;2023-02-15T03:16:10;100969.72;;;0.44;90.91
23170;BME280;11753;43.144;24.714;2023-02-15T03:17:32;100970.13;;;0.55;90.77
23170;BME280;11753;43.144;24.714;2023-02-15T03:18:56;100971.41;;;0.45;89.92
23170;BME280;11753;43.144;24.714;2023-02-15T03:20:04;100974.06;;;0.44;90.50
23170;BME280;11753;43.144;24.714;2023-02-15T03:21:08;100972.19;;;0.47;90.17
23170;BME280;11753;43.144;24.714;2023-02-15T03:22:21;100972.69;;;0.34;89.79
23170;BME280;11753;43.144;24.714;2023-02-15T03:23:25;100970.72;;;0.40;89.90
23170;BME280;11753;43.144;24.714;2023-02-15T03:24:34;100974.91;;;0.44;89.70
23170;BME280;11753;43.144;24.714;2023-02-15T03:25:44;100973.94;;;0.47;89.67
23170;BME280;11753;43.144;24.714;2023-02-15T03:26:50;100979.94;;;0.47;90.15
23170;BME280;11753;43.144;24.714;2023-02-15T03:27:55;100974.78;;;0.47;90.33
23170;BME280;11753;43.144;24.714;2023-02-15T03:29:01;100983.31;;;0.49;90.62
23170;BME280;11753;43.144;24.714;2023-02-15T03:30:05;100979.22;;;0.44;91.04
23170;BME280;11753;43.144;24.714;2023-02-15T03:31:08;100986.50;;;0.58;90.93
23170;BME280;11753;43.144;24.714;2023-02-15T03:32:11;100985.81;;;0.52;90.87
23170;BME280;11753;43.144;24.714;2023-02-15T03:33:15;100986.50;;;0.58;90.69
23170;BME280;11753;43.144;24.714;2023-02-15T03:34:17;100982.97;;;0.35;90.93
23170;BME280;11753;43.144;24.714;2023-02-15T03:35:22;100979.25;;;0.42;90.83
23170;BME280;11753;43.144;24.714;2023-02-15T03:36:52;100981.19;;;0.61;90.78
23170;BME280;11753;43.144;24.714;2023-02-15T03:38:00;100983.84;;;0.59;90.65
23170;BME280;11753;43.144;24.714;2023-02-15T03:41:36;100989.97;;;0.57;89.68
23170;BME280;11753;43.144;24.714;2023-02-15T03:42:40;100996.88;;;0.58;89.89
23170;BME280;11753;43.144;24.714;2023-02-15T03:45:03;100996.59;;;0.65;91.06
23170;BME280;11753;43.144;24.714;2023-02-15T03:46:15;100998.22;;;0.68;91.03
23170;BME280;11753;43.144;24.714;2023-02-15T03:47:25;101005.81;;;0.72;91.25
23170;BME280;11753;43.144;24.714;2023-02-15T03:48:38;101011.03;;;0.71;91.39
23170;BME280;11753;43.144;24.714;2023-02-15T03:50:05;101005.97;;;0.68;91.15
23170;BME280;11753;43.144;24.714;2023-02-15T03:51:31;101010.03;;;0.75;90.88
23170;BME280;11753;43.144;24.714;2023-02-15T03:52:37;101010.81;;;0.77;90.59
23170;BME280;11753;43.144;24.714;2023-02-15T03:53:39;101006.53;;;0.76;90.82
23170;BME280;11753;43.144;24.714;2023-02-15T03:54:41;101016.06;;;0.75;90.60
23170;BME280;11753;43.144;24.714;2023-02-15T03:55:53;101013.31;;;0.80;90.46
23170;BME280;11753;43.144;24.714;2023-02-15T03:56:54;101005.63;;;0.77;90.45
23170;BME280;11753;43.144;24.714;2023-02-15T03:58:15;101002.41;;;0.70;90.29
23170;BME280;11753;43.144;24.714;2023-02-15T03:59:34;101013.75;;;0.68;90.83
23170;BME280;11753;43.144;24.714;2023-02-15T04:00:59;101007.72;;;0.67;90.76
23170;BME280;11753;43.144;24.714;2023-02-15T04:02:26;101010.81;;;0.77;90.68
23170;BME280;11753;43.144;24.714;2023-02-15T04:03:40;101016.75;;;0.80;90.27
23170;BME280;11753;43.144;24.714;2023-02-15T04:04:46;101018.66;;;0.75;90.23
23170;BME280;11753;43.144;24.714;2023-02-15T04:05:47;101022.00;;;0.79;90.23
23170;BME280;11753;43.144;24.714;2023-02-15T04:06:47;101015.91;;;0.80;90.21
23170;BME280;11753;43.144;24.714;2023-02-15T04:07:48;101027.91;;;0.82;90.02
23170;BME280;11753;43.144;24.714;2023-02-15T04:08:49;101023.34;;;0.89;90.17
23170;BME280;11753;43.144;24.714;2023-02-15T04:10:08;101019.59;;;0.96;89.92
23170;BME280;11753;43.144;24.714;2023-02-15T04:11:28;101028.38;;;0.92;89.75
23170;BME280;11753;43.144;24.714;2023-02-15T04:12:28;101017.13;;;0.93;89.47
23170;BME280;11753;43.144;24.714;2023-02-15T04:13:31;101020.31;;;1.00;89.48
23170;BME280;11753;43.144;24.714;2023-02-15T04:14:33;101023.09;;;0.95;89.25
23170;BME280;11753;43.144;24.714;2023-02-15T04:15:54;101026.31;;;1.02;89.15
23170;BME280;11753;43.144;24.714;2023-02-15T04:17:08;101022.06;;;0.99;88.80
23170;BME280;11753;43.144;24.714;2023-02-15T04:18:09;101032.28;;;1.04;88.66
23170;BME280;11753;43.144;24.714;2023-02-15T04:19:10;101028.84;;;1.03;88.66
23170;BME280;11753;43.144;24.714;2023-02-15T04:20:29;101031.44;;;1.03;88.56
23170;BME280;11753;43.144;24.714;2023-02-15T04:21:48;101036.28;;;0.89;88.67
23170;BME280;11753;43.144;24.714;2023-02-15T04:23:08;101039.66;;;0.91;88.46
23170;BME280;11753;43.144;24.714;2023-02-15T04:24:27;101032.03;;;0.88;88.68
23170;BME280;11753;43.144;24.714;2023-02-15T04:25:46;101029.31;;;0.91;88.50
23170;BME280;11753;43.144;24.714;2023-02-15T04:26:47;101024.78;;;0.96;88.45
23170;BME280;11753;43.144;24.714;2023-02-15T04:27:51;101026.59;;;0.94;88.42
23170;BME280;11753;43.144;24.714;2023-02-15T04:28:53;101027.25;;;0.99;88.43
23170;BME280;11753;43.144;24.714;2023-02-15T04:29:57;101035.72;;;1.04;88.27
23170;BME280;11753;43.144;24.714;2023-02-15T04:30:58;101028.06;;;1.01;88.20
23170;BME280;11753;43.144;24.714;2023-02-15T04:32:00;101038.31;;;1.04;88.22
23170;BME280;11753;43.144;24.714;2023-02-15T04:33:01;101027.16;;;1.02;87.98
23170;BME280;11753;43.144;24.714;2023-02-15T04:34:02;101029.75;;;1.02;88.09
23170;BME280;11753;43.144;24.714;2023-02-15T04:35:04;101044.47;;;1.02;87.90
23170;BME280;11753;43.144;24.714;2023-02-15T04:36:06;101037.81;;;0.95;88.02
23170;BME280;11753;43.144;24.714;2023-02-15T04:37:06;101032.44;;;0.99;88.23
23170;BME280;11753;43.144;24.714;2023-02-15T04:38:07;101031.66;;;0.97;88.00
23170;BME280;11753;43.144;24.714;2023-02-15T04:39:08;101044.75;;;0.94;88.04
23170;BME280;11753;43.144;24.714;2023-02-15T04:40:11;101042.94;;;0.96;88.15
23170;BME280;11753;43.144;24.714;2023-02-15T04:41:13;101041.13;;;0.98;88.16
23170;BME280;11753;43.144;24.714;2023-02-15T04:42:14;101047.13;;;1.00;88.11
23170;BME280;11753;43.144;24.714;2023-02-15T04:43:15;101046.16;;;1.03;87.97
23170;BME280;11753;43.144;24.714;2023-02-15T04:44:16;101029.97;;;0.96;88.06
23170;BME280;11753;43.144;24.714;2023-02-15T04:45:17;101040.13;;;1.02;88.02
23170;BME280;11753;43.144;24.714;2023-02-15T04:46:18;101036.63;;;1.03;87.99
23170;BME280;11753;43.144;24.714;2023-02-15T04:47:19;101047.00;;;1.03;87.90
23170;BME280;11753;43.144;24.714;2023-02-15T04:48:20;101051.34;;;1.03;87.91
23170;BME280;11753;43.144;24.714;2023-02-15T04:49:21;101043.63;;;1.01;87.95
23170;BME280;11753;43.144;24.714;2023-02-15T04:50:22;101041.69;;;1.06;87.90
23170;BME280;11753;43.144;24.714;2023-02-15T04:51:24;101050.38;;;1.05;87.89
23170;BME280;11753;43.144;24.714;2023-02-15T04:52:25;101047.72;;;1.07;87.74
23170;BME280;11753;43.144;24.714;2023-02-15T04:53:26;101041.75;;;1.05;87.68
23170;BME280;11753;43.144;24.714;2023-02-15T04:54:27;101047.13;;;1.00;87.72
23170;BME280;11753;43.144;24.714;2023-02-15T04:55:28;101042.88;;;0.98;87.85
23170;BME280;11753;43.144;24.714;2023-02-15T04:56:29;101052.19;;;1.03;88.01
23170;BME280;11753;43.144;24.714;2023-02-15T04:57:30;101054.78;;;1.03;87.84
23170;BME280;11753;43.144;24.714;2023-02-15T04:58:31;101053.03;;;1.04;87.87
23170;BME280;11753;43.144;24.714;2023-02-15T04:59:32;101053.88;;;1.04;88.02
23170;BME280;11753;43.144;24.714;2023-02-15T05:00:33;101052.06;;;1.06;87.87
23170;BME280;11753;43.144;24.714;2023-02-15T05:01:34;101052.31;;;1.00;87.68
23170;BME280;11753;43.144;24.714;2023-02-15T05:02:35;101050.59;;;0.99;87.55
23170;BME280;11753;43.144;24.714;2023-02-15T05:03:36;101053.25;;;0.98;87.64
23170;BME280;11753;43.144;24.714;2023-02-15T05:04:37;101054.16;;;0.97;87.55
23170;BME280;11753;43.144;24.714;2023-02-15T05:05:38;101058.94;;;0.84;88.01
23170;BME280;11753;43.144;24.714;2023-02-15T05:06:39;101057.16;;;0.86;88.10
23170;BME280;11753;43.144;24.714;2023-02-15T05:07:40;101058.78;;;0.89;88.13
23170;BME280;11753;43.144;24.714;2023-02-15T05:08:41;101053.53;;;0.90;88.27
23170;BME280;11753;43.144;24.714;2023-02-15T05:09:42;101060.47;;;0.90;88.23
23170;BME280;11753;43.144;24.714;2023-02-15T05:10:43;101060.59;;;0.87;88.49
23170;BME280;11753;43.144;24.714;2023-02-15T05:11:43;101059.84;;;0.83;88.41
23170;BME280;11753;43.144;24.714;2023-02-15T05:12:44;101058.03;;;0.85;88.13
23170;BME280;11753;43.144;24.714;2023-02-15T05:13:45;101056.34;;;0.84;88.23
23170;BME280;11753;43.144;24.714;2023-02-15T05:14:45;101057.25;;;0.83;88.17
23170;BME280;11753;43.144;24.714;2023-02-15T05:15:47;101065.16;;;0.80;88.54
23170;BME280;11753;43.144;24.714;2023-02-15T05:16:49;101056.56;;;0.78;88.60
23170;BME280;11753;43.144;24.714;2023-02-15T05:17:50;101060.75;;;0.82;88.53
23170;BME280;11753;43.144;24.714;2023-02-15T05:18:51;101071.06;;;0.83;88.73
23170;BME280;11753;43.144;24.714;2023-02-15T05:19:52;101072.59;;;0.89;88.16
23170;BME280;11753;43.144;24.714;2023-02-15T05:20:53;101074.19;;;0.93;87.86
23170;BME280;11753;43.144;24.714;2023-02-15T05:21:54;101075.41;;;0.83;87.97
23170;BME280;11753;43.144;24.714;2023-02-15T05:22:55;101078.00;;;0.83;88.20
23170;BME280;11753;43.144;24.714;2023-02-15T05:23:56;101080.50;;;0.86;88.15
23170;BME280;11753;43.144;24.714;2023-02-15T05:24:56;101076.25;;;0.83;88.11
23170;BME280;11753;43.144;24.714;2023-02-15T05:26:19;101080.38;;;0.89;88.21
23170;BME280;11753;43.144;24.714;2023-02-15T05:27:40;101073.50;;;0.88;87.99
23170;BME280;11753;43.144;24.714;2023-02-15T05:29:00;101077.22;;;0.81;88.21
23170;BME280;11753;43.144;24.714;2023-02-15T05:30:01;101073.72;;;0.82;88.56
23170;BME280;11753;43.144;24.714;2023-02-15T05:31:10;101073.59;;;0.85;88.44
23170;BME280;11753;43.144;24.714;2023-02-15T05:32:13;101081.28;;;0.88;88.22
23170;BME280;11753;43.144;24.714;2023-02-15T05:33:13;101077.78;;;0.89;88.41
23170;BME280;11753;43.144;24.714;2023-02-15T05:34:14;101084.72;;;0.89;88.18
23170;BME280;11753;43.144;24.714;2023-02-15T05:35:15;101087.19;;;0.92;88.16
23170;BME280;11753;43.144;24.714;2023-02-15T05:36:17;101086.56;;;0.85;88.17
23170;BME280;11753;43.144;24.714;2023-02-15T05:37:18;101087.38;;;0.87;88.25
23170;BME280;11753;43.144;24.714;2023-02-15T05:38:19;101096.72;;;0.91;88.26
23170;BME280;11753;43.144;24.714;2023-02-15T05:39:20;101089.84;;;0.90;88.40
23170;BME280;11753;43.144;24.714;2023-02-15T05:40:22;101089.78;;;0.92;88.36
23170;BME280;11753;43.144;24.714;2023-02-15T05:41:23;101088.63;;;1.00;88.05
23170;BME280;11753;43.144;24.714;2023-02-15T05:42:24;101086.91;;;0.99;87.76
23170;BME280;11753;43.144;24.714;2023-02-15T05:43:26;101088.56;;;1.02;87.67
23170;BME280;11753;43.144;24.714;2023-02-15T05:44:27;101093.06;;;0.97;87.79
23170;BME280;11753;43.144;24.714;2023-02-15T05:45:28;101097.28;;;0.99;87.83
23170;BME280;11753;43.144;24.714;2023-02-15T05:46:29;101095.59;;;0.98;87.82
23170;BME280;11753;43.144;24.714;2023-02-15T05:47:30;101097.06;;;1.05;87.88
23170;BME280;11753;43.144;24.714;2023-02-15T05:48:31;101093.81;;;1.00;88.04
23170;BME280;11753;43.144;24.714;2023-02-15T05:49:32;101101.47;;;1.03;87.88
23170;BME280;11753;43.144;24.714;2023-02-15T05:50:33;101097.97;;;1.04;87.96
23170;BME280;11753;43.144;24.714;2023-02-15T05:51:34;101097.91;;;1.06;87.91
23170;BME280;11753;43.144;24.714;2023-02-15T05:52:35;101097.06;;;1.05;87.91
23170;BME280;11753;43.144;24.714;2023-02-15T05:53:38;101102.03;;;1.12;87.82
23170;BME280;11753;43.144;24.714;2023-02-15T05:54:39;101102.63;;;1.18;87.59
23170;BME280;11753;43.144;24.714;2023-02-15T05:55:41;101101.78;;;1.18;87.36
23170;BME280;11753;43.144;24.714;2023-02-15T05:56:42;101110.25;;;1.23;87.16
23170;BME280;11753;43.144;24.714;2023-02-15T05:57:43;101103.25;;;1.25;87.12
23170;BME280;11753;43.144;24.714;2023-02-15T05:58:43;101104.38;;;1.18;87.12
23170;BME280;11753;43.144;24.714;2023-02-15T05:59:44;101111.81;;;1.27;87.29
23170;BME280;11753;43.144;24.714;2023-02-15T06:00:49;101114.41;;;1.27;87.37
23170;BME280;11753;43.144;24.714;2023-02-15T06:01:50;101108.56;;;1.22;87.14
23170;BME280;11753;43.144;24.714;2023-02-15T06:02:51;101108.22;;;1.31;87.37
23170;BME280;11753;43.144;24.714;2023-02-15T06:03:52;101107.19;;;1.35;87.15
23170;BME280;11753;43.144;24.714;2023-02-15T06:04:53;101104.47;;;1.38;86.80